sensor_id;sensor_type;location;lat;lon;timestamp;noise_LAeq;noise_LA_min;noise_LA_max;noise_LA01;noise_LA95
48148;Laerm;29352;48.708;9.290;2023-04-06T00:01:39;47.95;15.00;84.18;;
48148;Laerm;29352;48.708;9.290;2023-04-06T00:04:05;15.00;15.00;15.00;;
48148;Laerm;29352;48.708;9.290;2023-04-06T00:06:32;15.00;15.00;15.00;;
48148;Laerm;29352;48.708;9.290;2023-04-06T00:08:59;15.00;15.00;15.00;;
48148;Laerm;29352;48.708;9.290;2023-04-06T00:11:25;15.00;15.00;15.00;;
48148;Laerm;29352;48.708;9.290;2023-04-06T00:13:51;15.00;15.00;15.00;;
48148;Laerm;29352;48.708;9.290;2023-04-06T00:16:17;76.48;15.00;98.87;;
48148;Laerm;29352;48.708;9.290;2023-04-06T00:18:42;15.00;15.00;15.00;;
48148;Laerm;29352;48.708;9.290;2023-04-06T00:21:10;54.98;15.00;90.20;;
48148;Laerm;29352;48.708;9.290;2023-04-06T00:23:36;74.22;15.00;98.32;;
48148;Laerm;29352;48.708;9.290;2023-04-06T00:26:01;15.00;15.00;15.00;;
48148;Laerm;29352;48.708;9.290;2023-04-06T00:28:27;72.37;15.00;96.22;;
48148;Laerm;29352;48.708;9.290;2023-04-06T00:30:53;79.52;15.00;98.15;;
48148;Laerm;29352;48.708;9.290;2023-04-06T00:33:21;68.71;15.00;96.21;;
48148;Laerm;29352;48.708;9.290;2023-04-06T00:35:46;15.00;15.00;15.00;;
48148;Laerm;29352;48.708;9.290;2023-04-06T00:38:13;15.00;15.00;15.00;;
48148;Laerm;29352;48.708;9.290;2023-04-06T00:40:39;15.00;15.00;15.00;;
48148;Laerm;29352;48.708;9.290;2023-04-06T00:43:06;75.14;15.00;99.35;;
48148;Laerm;29352;48.708;9.290;2023-04-06T00:45:32;72.19;15.00;97.60;;
48148;Laerm;29352;48.708;9.290;2023-04-06T00:47:59;15.00;15.00;15.00;;
48148;Laerm;29352;48.708;9.290;2023-04-06T00:50:24;55.76;15.00;90.20;;
48148;Laerm;29352;48.708;9.290;2023-04-06T00:52:50;15.00;15.00;15.00;;
48148;Laerm;29352;48.708;9.290;2023-04-06T00:55:17;15.00;15.00;15.00;;
48148;Laerm;29352;48.708;9.290;2023-04-06T00:57:43;15.00;15.00;15.00;;
48148;Laerm;29352;48.708;9.290;2023-04-06T01:00:09;64.87;15.00;97.18;;
48148;Laerm;29352;48.708;9.290;2023-04-06T01:02:37;77.88;15.00;100.30;;
48148;Laerm;29352;48.708;9.290;2023-04-06T01:05:03;85.60;15.00;99.73;;
48148;Laerm;29352;48.708;9.290;2023-04-06T01:07:28;73.31;15.00;97.80;;
48148;Laerm;29352;48.708;9.290;2023-04-06T01:09:54;82.11;15.00;99.49;;
48148;Laerm;29352;48.708;9.290;2023-04-06T01:12:20;82.27;15.00;99.63;;
48148;Laerm;29352;48.708;9.290;2023-04-06T01:14:46;81.51;15.00;101.42;;
48148;Laerm;29352;48.708;9.290;2023-04-06T01:17:11;53.08;51.22;54.11;;
48148;Laerm;29352;48.708;9.290;2023-04-06T01:19:37;53.01;51.89;54.19;;
48148;Laerm;29352;48.708;9.290;2023-04-06T01:22:02;53.00;52.03;53.99;;
48148;Laerm;29352;48.708;9.290;2023-04-06T01:24:28;52.98;51.89;54.03;;
48148;Laerm;29352;48.708;9.290;2023-04-06T01:26:53;53.03;51.68;54.07;;
48148;Laerm;29352;48.708;9.290;2023-04-06T01:29:19;53.05;51.88;53.90;;
48148;Laerm;29352;48.708;9.290;2023-04-06T01:31:45;53.04;51.82;60.10;;
48148;Laerm;29352;48.708;9.290;2023-04-06T01:34:10;52.93;51.61;53.99;;
48148;Laerm;29352;48.708;9.290;2023-04-06T01:36:36;52.95;51.68;54.07;;
48148;Laerm;29352;48.708;9.290;2023-04-06T01:39:02;52.93;51.61;54.15;;
48148;Laerm;29352;48.708;9.290;2023-04-06T01:41:27;52.94;51.89;54.11;;
48148;Laerm;29352;48.708;9.290;2023-04-06T01:43:52;52.92;51.68;56.55;;
48148;Laerm;29352;48.708;9.290;2023-04-06T01:46:20;52.80;51.68;53.90;;
48148;Laerm;29352;48.708;9.290;2023-04-06T01:48:45;52.85;51.75;53.90;;
48148;Laerm;29352;48.708;9.290;2023-04-06T01:51:11;52.94;51.82;54.39;;
48148;Laerm;29352;48.708;9.290;2023-04-06T01:53:36;52.93;51.61;54.94;;
48148;Laerm;29352;48.708;9.290;2023-04-06T01:56:02;52.88;51.82;53.94;;
48148;Laerm;29352;48.708;9.290;2023-04-06T01:58:27;52.89;51.96;54.03;;
48148;Laerm;29352;48.708;9.290;2023-04-06T02:00:53;52.81;51.68;53.81;;
48148;Laerm;29352;48.708;9.290;2023-04-06T02:03:19;52.80;51.75;59.08;;
48148;Laerm;29352;48.708;9.290;2023-04-06T02:05:45;52.72;51.68;53.68;;
48148;Laerm;29352;48.708;9.290;2023-04-06T02:08:10;52.65;51.68;53.94;;
48148;Laerm;29352;48.708;9.290;2023-04-06T02:10:36;52.65;51.68;54.76;;
48148;Laerm;29352;48.708;9.290;2023-04-06T02:13:01;52.63;51.53;55.04;;
48148;Laerm;29352;48.708;9.290;2023-04-06T02:15:27;52.62;51.14;53.77;;
48148;Laerm;29352;48.708;9.290;2023-04-06T02:17:53;52.63;51.61;53.90;;
48148;Laerm;29352;48.708;9.290;2023-04-06T02:20:19;52.67;51.46;53.68;;
48148;Laerm;29352;48.708;9.290;2023-04-06T02:22:44;52.67;51.53;53.63;;
48148;Laerm;29352;48.708;9.290;2023-04-06T02:25:10;52.62;51.46;53.68;;
48148;Laerm;29352;48.708;9.290;2023-04-06T02:27:36;52.56;15.00;53.63;;
48148;Laerm;29352;48.708;9.290;2023-04-06T02:30:03;52.54;51.22;53.72;;
48148;Laerm;29352;48.708;9.290;2023-04-06T02:32:29;52.53;51.46;53.49;;
48148;Laerm;29352;48.708;9.290;2023-04-06T02:34:54;52.54;51.41;53.72;;
48148;Laerm;29352;48.708;9.290;2023-04-06T02:37:20;52.52;51.30;53.77;;
48148;Laerm;29352;48.708;9.290;2023-04-06T02:39:46;52.56;51.46;54.45;;
48148;Laerm;29352;48.708;9.290;2023-04-06T02:42:14;52.60;51.38;53.58;;
48148;Laerm;29352;48.708;9.290;2023-04-06T02:44:41;52.63;51.46;53.63;;
48148;Laerm;29352;48.708;9.290;2023-04-06T02:47:07;52.58;51.38;55.42;;
48148;Laerm;29352;48.708;9.290;2023-04-06T02:49:33;52.53;51.30;53.63;;
48148;Laerm;29352;48.708;9.290;2023-04-06T02:51:59;52.54;51.46;53.39;;
48148;Laerm;29352;48.708;9.290;2023-04-06T02:54:24;78.54;15.00;98.32;;
48148;Laerm;29352;48.708;9.290;2023-04-06T02:56:50;70.56;15.00;96.22;;
48148;Laerm;29352;48.708;9.290;2023-04-06T02:59:15;80.07;15.00;98.15;;
48148;Laerm;29352;48.708;9.290;2023-04-06T03:01:41;84.61;15.00;101.50;;
48148;Laerm;29352;48.708;9.290;2023-04-06T03:04:06;73.99;15.00;98.80;;
48148;Laerm;29352;48.708;9.290;2023-04-06T03:06:32;76.84;15.00;98.15;;
48148;Laerm;29352;48.708;9.290;2023-04-06T03:08:57;54.97;15.00;90.19;;
48148;Laerm;29352;48.708;9.290;2023-04-06T03:11:23;72.20;15.00;99.49;;
48148;Laerm;29352;48.708;9.290;2023-04-06T03:13:48;64.98;15.00;95.31;;
48148;Laerm;29352;48.708;9.290;2023-04-06T03:16:14;15.00;15.00;15.00;;
48148;Laerm;29352;48.708;9.290;2023-04-06T03:18:40;15.00;15.00;15.00;;
48148;Laerm;29352;48.708;9.290;2023-04-06T03:21:05;60.03;15.00;96.22;;
48148;Laerm;29352;48.708;9.290;2023-04-06T03:23:31;15.00;15.00;15.00;;
48148;Laerm;29352;48.708;9.290;2023-04-06T03:25:56;15.00;15.00;15.00;;
48148;Laerm;29352;48.708;9.290;2023-04-06T03:28:21;15.00;15.00;15.00;;
48148;Laerm;29352;48.708;9.290;2023-04-06T03:30:47;70.59;15.00;97.05;;
48148;Laerm;29352;48.708;9.290;2023-04-06T03:33:12;75.67;15.00;97.18;;
48148;Laerm;29352;48.708;9.290;2023-04-06T03:35:38;72.39;15.00;98.15;;
48148;Laerm;29352;48.708;9.290;2023-04-06T03:38:04;15.00;15.00;15.00;;
48148;Laerm;29352;48.708;9.290;2023-04-06T03:40:31;47.95;15.00;84.18;;
48148;Laerm;29352;48.708;9.290;2023-04-06T03:42:57;15.00;15.00;15.00;;
48148;Laerm;29352;48.708;9.290;2023-04-06T03:45:23;60.77;15.00;93.72;;
48148;Laerm;29352;48.708;9.290;2023-04-06T03:47:48;15.00;15.00;15.00;;
48148;Laerm;29352;48.708;9.290;2023-04-06T03:50:14;15.00;15.00;15.00;;
48148;Laerm;29352;48.708;9.290;2023-04-06T03:52:39;60.02;15.00;96.21;;
48148;Laerm;29352;48.708;9.290;2023-04-06T03:55:06;15.00;15.00;15.00;;
48148;Laerm;29352;48.708;9.290;2023-04-06T03:57:32;15.00;15.00;15.00;;
48148;Laerm;29352;48.708;9.290;2023-04-06T03:59:57;15.00;15.00;15.00;;
48148;Laerm;29352;48.708;9.290;2023-04-06T04:02:23;15.00;15.00;15.00;;
48148;Laerm;29352;48.708;9.290;2023-04-06T04:04:49;15.00;15.00;15.00;;
48148;Laerm;29352;48.708;9.290;2023-04-06T04:07:14;15.00;15.00;15.00;;
48148;Laerm;29352;48.708;9.290;2023-04-06T04:09:39;58.40;15.00;93.72;;
48148;Laerm;29352;48.708;9.290;2023-04-06T04:12:05;77.69;15.00;98.15;;
48148;Laerm;29352;48.708;9.290;2023-04-06T04:14:31;80.20;15.00;98.15;;
48148;Laerm;29352;48.708;9.290;2023-04-06T04:16:56;81.65;15.00;98.80;;
48148;Laerm;29352;48.708;9.290;2023-04-06T04:19:22;82.83;15.00;99.20;;
48148;Laerm;29352;48.708;9.290;2023-04-06T04:21:47;78.71;15.00;97.80;;
48148;Laerm;29352;48.708;9.290;2023-04-06T04:24:13;71.91;15.00;96.22;;
48148;Laerm;29352;48.708;9.290;2023-04-06T04:26:39;65.12;15.00;96.21;;
48148;Laerm;29352;48.708;9.290;2023-04-06T04:29:06;71.61;15.00;96.72;;
48148;Laerm;29352;48.708;9.290;2023-04-06T04:31:31;52.29;50.71;53.39;;
48148;Laerm;29352;48.708;9.290;2023-04-06T04:34:00;52.26;51.06;53.39;;
48148;Laerm;29352;48.708;9.290;2023-04-06T04:36:26;52.25;51.14;53.54;;
48148;Laerm;29352;48.708;9.290;2023-04-06T04:38:52;52.21;50.89;54.19;;
48148;Laerm;29352;48.708;9.290;2023-04-06T04:41:18;52.22;50.98;55.40;;
48148;Laerm;29352;48.708;9.290;2023-04-06T04:43:44;51.68;15.00;53.34;;
48148;Laerm;29352;48.708;9.290;2023-04-06T04:46:10;66.41;15.00;96.21;;
48148;Laerm;29352;48.708;9.290;2023-04-06T04:48:36;76.46;15.00;99.22;;
48148;Laerm;29352;48.708;9.290;2023-04-06T04:51:01;80.18;15.00;98.15;;
48148;Laerm;29352;48.708;9.290;2023-04-06T04:53:27;66.09;15.00;96.21;;
48148;Laerm;29352;48.708;9.290;2023-04-06T04:55:52;66.44;15.00;96.21;;
48148;Laerm;29352;48.708;9.290;2023-04-06T04:58:18;63.78;15.00;96.21;;
48148;Laerm;29352;48.708;9.290;2023-04-06T05:00:46;65.33;15.00;96.21;;
48148;Laerm;29352;48.708;9.290;2023-04-06T05:03:29;68.39;15.00;95.71;;
48148;Laerm;29352;48.708;9.290;2023-04-06T05:05:55;74.37;15.00;99.50;;
48148;Laerm;29352;48.708;9.290;2023-04-06T05:08:21;75.74;15.00;96.84;;
48148;Laerm;29352;48.708;9.290;2023-04-06T05:10:46;67.34;15.00;93.72;;
48148;Laerm;29352;48.708;9.290;2023-04-06T05:13:13;69.85;15.00;97.18;;
48148;Laerm;29352;48.708;9.290;2023-04-06T05:15:40;73.91;15.00;98.15;;
48148;Laerm;29352;48.708;9.290;2023-04-06T05:18:07;59.98;15.00;90.20;;
48148;Laerm;29352;48.708;9.290;2023-04-06T05:20:35;69.41;15.00;96.22;;
48148;Laerm;29352;48.708;9.290;2023-04-06T05:23:01;59.71;15.00;93.72;;
48148;Laerm;29352;48.708;9.290;2023-04-06T05:25:28;68.63;15.00;96.21;;
48148;Laerm;29352;48.708;9.290;2023-04-06T05:27:53;15.00;15.00;15.00;;
48148;Laerm;29352;48.708;9.290;2023-04-06T05:30:20;15.00;15.00;15.00;;
48148;Laerm;29352;48.708;9.290;2023-04-06T05:32:46;62.59;15.00;94.17;;
48148;Laerm;29352;48.708;9.290;2023-04-06T05:35:11;65.18;15.00;96.22;;
48148;Laerm;29352;48.708;9.290;2023-04-06T05:37:38;53.97;15.00;90.20;;
48148;Laerm;29352;48.708;9.290;2023-04-06T05:40:05;63.13;15.00;96.21;;
48148;Laerm;29352;48.708;9.290;2023-04-06T05:42:42;66.66;15.00;99.23;;
48148;Laerm;29352;48.708;9.290;2023-04-06T05:45:12;15.00;15.00;15.00;;
48148;Laerm;29352;48.708;9.290;2023-04-06T05:47:42;57.38;15.00;93.71;;
48148;Laerm;29352;48.708;9.290;2023-04-06T05:50:10;15.00;15.00;15.00;;
48148;Laerm;29352;48.708;9.290;2023-04-06T05:52:36;15.00;15.00;15.00;;
48148;Laerm;29352;48.708;9.290;2023-04-06T05:55:02;15.00;15.00;15.00;;
48148;Laerm;29352;48.708;9.290;2023-04-06T05:57:28;15.00;15.00;15.00;;
48148;Laerm;29352;48.708;9.290;2023-04-06T05:59:54;15.00;15.00;15.00;;
48148;Laerm;29352;48.708;9.290;2023-04-06T06:02:21;15.00;15.00;15.00;;
48148;Laerm;29352;48.708;9.290;2023-04-06T06:04:47;15.00;15.00;15.00;;
48148;Laerm;29352;48.708;9.290;2023-04-06T06:07:13;15.00;15.00;15.00;;
48148;Laerm;29352;48.708;9.290;2023-04-06T06:09:39;15.00;15.00;15.00;;
48148;Laerm;29352;48.708;9.290;2023-04-06T06:12:04;15.00;15.00;15.00;;
48148;Laerm;29352;48.708;9.290;2023-04-06T06:14:30;15.00;15.00;15.00;;
48148;Laerm;29352;48.708;9.290;2023-04-06T06:16:55;15.00;15.00;15.00;;
48148;Laerm;29352;48.708;9.290;2023-04-06T06:19:21;15.00;15.00;15.00;;
48148;Laerm;29352;48.708;9.290;2023-04-06T06:21:46;15.00;15.00;15.00;;
48148;Laerm;29352;48.708;9.290;2023-04-06T06:24:12;15.00;15.00;15.00;;
48148;Laerm;29352;48.708;9.290;2023-04-06T06:26:37;15.00;15.00;15.00;;
48148;Laerm;29352;48.708;9.290;2023-04-06T06:29:05;15.00;15.00;15.00;;
48148;Laerm;29352;48.708;9.290;2023-04-06T06:31:31;15.00;15.00;15.00;;
48148;Laerm;29352;48.708;9.290;2023-04-06T06:33:57;15.00;15.00;15.00;;
48148;Laerm;29352;48.708;9.290;2023-04-06T06:36:22;15.00;15.00;15.00;;
48148;Laerm;29352;48.708;9.290;2023-04-06T06:38:48;15.00;15.00;15.00;;
48148;Laerm;29352;48.708;9.290;2023-04-06T06:41:13;15.00;15.00;15.00;;
48148;Laerm;29352;48.708;9.290;2023-04-06T06:43:39;15.00;15.00;15.00;;
48148;Laerm;29352;48.708;9.290;2023-04-06T06:46:05;15.00;15.00;15.00;;
48148;Laerm;29352;48.708;9.290;2023-04-06T06:48:31;15.00;15.00;15.00;;
48148;Laerm;29352;48.708;9.290;2023-04-06T06:50:56;15.00;15.00;15.00;;
48148;Laerm;29352;48.708;9.290;2023-04-06T06:53:23;15.00;15.00;15.00;;
48148;Laerm;29352;48.708;9.290;2023-04-06T06:55:50;15.00;15.00;15.00;;
48148;Laerm;29352;48.708;9.290;2023-04-06T06:58:19;15.00;15.00;15.00;;
48148;Laerm;29352;48.708;9.290;2023-04-06T07:00:47;15.00;15.00;15.00;;
48148;Laerm;29352;48.708;9.290;2023-04-06T07:03:13;15.00;15.00;15.00;;
48148;Laerm;29352;48.708;9.290;2023-04-06T07:05:45;15.00;15.00;15.00;;
48148;Laerm;29352;48.708;9.290;2023-04-06T07:08:16;15.00;15.00;15.00;;
48148;Laerm;29352;48.708;9.290;2023-04-06T07:10:42;15.00;15.00;15.00;;
48148;Laerm;29352;48.708;9.290;2023-04-06T07:13:07;15.00;15.00;15.00;;
48148;Laerm;29352;48.708;9.290;2023-04-06T07:15:32;15.00;15.00;15.00;;
48148;Laerm;29352;48.708;9.290;2023-04-06T07:18:01;15.00;15.00;15.00;;
48148;Laerm;29352;48.708;9.290;2023-04-06T07:20:26;15.00;15.00;15.00;;
48148;Laerm;29352;48.708;9.290;2023-04-06T07:22:53;15.00;15.00;15.00;;
48148;Laerm;29352;48.708;9.290;2023-04-06T07:25:19;15.00;15.00;15.00;;
48148;Laerm;29352;48.708;9.290;2023-04-06T07:27:44;15.00;15.00;15.00;;
48148;Laerm;29352;48.708;9.290;2023-04-06T07:30:10;15.00;15.00;15.00;;
48148;Laerm;29352;48.708;9.290;2023-04-06T07:32:36;15.00;15.00;15.00;;
48148;Laerm;29352;48.708;9.290;2023-04-06T07:35:02;15.00;15.00;15.00;;
48148;Laerm;29352;48.708;9.290;2023-04-06T07:37:28;15.00;15.00;15.00;;
48148;Laerm;29352;48.708;9.290;2023-04-06T07:39:53;15.00;15.00;15.00;;
48148;Laerm;29352;48.708;9.290;2023-04-06T07:42:19;15.00;15.00;15.00;;
48148;Laerm;29352;48.708;9.290;2023-04-06T07:44:45;15.00;15.00;15.00;;
48148;Laerm;29352;48.708;9.290;2023-04-06T07:47:10;15.00;15.00;15.00;;
48148;Laerm;29352;48.708;9.290;2023-04-06T07:49:36;15.00;15.00;15.00;;
48148;Laerm;29352;48.708;9.290;2023-04-06T07:52:03;15.00;15.00;15.00;;
48148;Laerm;29352;48.708;9.290;2023-04-06T07:54:29;15.00;15.00;15.00;;
48148;Laerm;29352;48.708;9.290;2023-04-06T07:56:54;15.00;15.00;15.00;;
48148;Laerm;29352;48.708;9.290;2023-04-06T07:59:20;15.00;15.00;15.00;;
48148;Laerm;29352;48.708;9.290;2023-04-06T08:01:45;15.00;15.00;15.00;;
48148;Laerm;29352;48.708;9.290;2023-04-06T08:04:11;15.00;15.00;15.00;;
48148;Laerm;29352;48.708;9.290;2023-04-06T08:06:36;15.00;15.00;15.00;;
48148;Laerm;29352;48.708;9.290;2023-04-06T08:09:02;15.00;15.00;15.00;;
48148;Laerm;29352;48.708;9.290;2023-04-06T08:11:29;15.00;15.00;15.00;;
48148;Laerm;29352;48.708;9.290;2023-04-06T08:13:54;15.00;15.00;15.00;;
48148;Laerm;29352;48.708;9.290;2023-04-06T08:16:22;15.00;15.00;15.00;;
48148;Laerm;29352;48.708;9.290;2023-04-06T08:18:48;15.00;15.00;15.00;;
48148;Laerm;29352;48.708;9.290;2023-04-06T08:21:13;15.00;15.00;15.00;;
48148;Laerm;29352;48.708;9.290;2023-04-06T08:23:39;15.00;15.00;15.00;;
48148;Laerm;29352;48.708;9.290;2023-04-06T08:26:04;16.20;15.00;45.36;;
48148;Laerm;29352;48.708;9.290;2023-04-06T08:28:30;15.00;15.00;15.00;;
48148;Laerm;29352;48.708;9.290;2023-04-06T08:30:55;15.00;15.00;15.00;;
48148;Laerm;29352;48.708;9.290;2023-04-06T08:33:21;15.00;15.00;15.00;;
48148;Laerm;29352;48.708;9.290;2023-04-06T08:35:47;15.00;15.00;15.00;;
48148;Laerm;29352;48.708;9.290;2023-04-06T08:38:12;57.52;15.00;93.71;;
48148;Laerm;29352;48.708;9.290;2023-04-06T08:40:39;15.00;15.00;15.00;;
48148;Laerm;29352;48.708;9.290;2023-04-06T08:43:13;15.00;15.00;15.00;;
48148;Laerm;29352;48.708;9.290;2023-04-06T08:45:41;57.89;15.00;93.72;;
48148;Laerm;29352;48.708;9.290;2023-04-06T08:48:09;53.95;15.00;90.20;;
48148;Laerm;29352;48.708;9.290;2023-04-06T08:50:38;15.00;15.00;15.00;;
48148;Laerm;29352;48.708;9.290;2023-04-06T08:53:06;15.00;15.00;15.00;;
48148;Laerm;29352;48.708;9.290;2023-04-06T08:55:33;15.00;15.00;15.00;;
48148;Laerm;29352;48.708;9.290;2023-04-06T08:57:59;15.00;15.00;15.00;;
48148;Laerm;29352;48.708;9.290;2023-04-06T09:00:27;69.18;15.00;96.22;;
48148;Laerm;29352;48.708;9.290;2023-04-06T09:02:56;80.13;15.00;98.88;;
48148;Laerm;29352;48.708;9.290;2023-04-06T09:05:25;83.18;15.00;98.39;;
48148;Laerm;29352;48.708;9.290;2023-04-06T09:07:51;83.30;15.00;98.15;;
48148;Laerm;29352;48.708;9.290;2023-04-06T09:10:17;82.24;15.00;99.23;;
48148;Laerm;29352;48.708;9.290;2023-04-06T09:12:43;82.36;15.00;99.97;;
48148;Laerm;29352;48.708;9.290;2023-04-06T09:15:20;81.82;15.00;99.66;;
48148;Laerm;29352;48.708;9.290;2023-04-06T09:17:45;81.41;15.00;99.73;;
48148;Laerm;29352;48.708;9.290;2023-04-06T09:20:12;82.00;15.00;98.15;;
48148;Laerm;29352;48.708;9.290;2023-04-06T09:22:39;84.20;15.00;99.89;;
48148;Laerm;29352;48.708;9.290;2023-04-06T09:25:06;85.03;15.00;99.23;;
48148;Laerm;29352;48.708;9.290;2023-04-06T09:27:38;86.83;15.00;100.30;;
48148;Laerm;29352;48.708;9.290;2023-04-06T09:30:10;83.77;15.00;99.48;;
48148;Laerm;29352;48.708;9.290;2023-04-06T09:32:52;84.85;15.00;98.15;;
48148;Laerm;29352;48.708;9.290;2023-04-06T09:35:20;83.54;15.00;98.15;;
48148;Laerm;29352;48.708;9.290;2023-04-06T09:37:51;76.62;15.00;98.32;;
48148;Laerm;29352;48.708;9.290;2023-04-06T09:40:17;77.47;15.00;98.95;;
48148;Laerm;29352;48.708;9.290;2023-04-06T09:42:49;63.92;15.00;96.28;;
48148;Laerm;29352;48.708;9.290;2023-04-06T09:45:17;64.02;15.00;96.21;;
48148;Laerm;29352;48.708;9.290;2023-04-06T09:47:45;57.17;15.00;93.35;;
48148;Laerm;29352;48.708;9.290;2023-04-06T09:50:14;67.23;15.00;96.21;;
48148;Laerm;29352;48.708;9.290;2023-04-06T09:52:50;65.91;15.00;96.21;;
48148;Laerm;29352;48.708;9.290;2023-04-06T09:55:43;67.07;15.00;96.21;;
48148;Laerm;29352;48.708;9.290;2023-04-06T09:58:21;51.73;15.00;87.41;;
48148;Laerm;29352;48.708;9.290;2023-04-06T10:01:08;44.72;15.00;52.22;;
48148;Laerm;29352;48.708;9.290;2023-04-06T10:03:57;53.99;15.00;90.20;;
48148;Laerm;29352;48.708;9.290;2023-04-06T10:06:32;60.73;15.00;95.06;;
48148;Laerm;29352;48.708;9.290;2023-04-06T10:09:04;44.43;15.00;79.08;;
48148;Laerm;29352;48.708;9.290;2023-04-06T10:11:34;49.09;15.00;82.68;;
48148;Laerm;29352;48.708;9.290;2023-04-06T10:14:00;41.88;15.00;48.81;;
48148;Laerm;29352;48.708;9.290;2023-04-06T10:16:26;42.03;15.00;49.81;;
48148;Laerm;29352;48.708;9.290;2023-04-06T10:19:06;42.09;15.00;51.46;;
48148;Laerm;29352;48.708;9.290;2023-04-06T10:21:38;44.40;15.00;51.46;;
48148;Laerm;29352;48.708;9.290;2023-04-06T10:24:09;45.94;15.00;53.09;;
48148;Laerm;29352;48.708;9.290;2023-04-06T10:26:39;46.30;15.00;53.44;;
48148;Laerm;29352;48.708;9.290;2023-04-06T10:29:06;45.71;15.00;52.09;;
48148;Laerm;29352;48.708;9.290;2023-04-06T10:31:31;45.22;15.00;50.89;;
48148;Laerm;29352;48.708;9.290;2023-04-06T10:34:00;45.38;15.00;60.98;;
48148;Laerm;29352;48.708;9.290;2023-04-06T10:36:32;46.07;15.00;50.62;;
48148;Laerm;29352;48.708;9.290;2023-04-06T10:39:04;46.20;15.00;55.42;;
48148;Laerm;29352;48.708;9.290;2023-04-06T10:41:41;44.12;15.00;50.43;;
48148;Laerm;29352;48.708;9.290;2023-04-06T10:44:07;46.39;15.00;52.41;;
48148;Laerm;29352;48.708;9.290;2023-04-06T10:46:33;45.14;15.00;51.46;;
48148;Laerm;29352;48.708;9.290;2023-04-06T10:49:12;45.91;15.00;52.29;;
48148;Laerm;29352;48.708;9.290;2023-04-06T10:51:39;45.17;15.00;51.68;;
48148;Laerm;29352;48.708;9.290;2023-04-06T10:54:06;45.93;15.00;50.71;;
48148;Laerm;29352;48.708;9.290;2023-04-06T10:56:37;44.99;15.00;51.46;;
48148;Laerm;29352;48.708;9.290;2023-04-06T10:59:06;45.54;15.00;51.82;;
48148;Laerm;29352;48.708;9.290;2023-04-06T11:01:32;47.07;15.00;53.14;;
48148;Laerm;29352;48.708;9.290;2023-04-06T11:03:58;47.16;15.00;54.07;;
48148;Laerm;29352;48.708;9.290;2023-04-06T11:06:30;45.72;15.00;52.59;;
48148;Laerm;29352;48.708;9.290;2023-04-06T11:08:58;45.93;15.00;51.82;;
48148;Laerm;29352;48.708;9.290;2023-04-06T11:11:26;46.19;15.00;52.09;;
48148;Laerm;29352;48.708;9.290;2023-04-06T11:16:27;46.10;15.00;52.09;;
48148;Laerm;29352;48.708;9.290;2023-04-06T11:19:01;45.74;15.00;52.35;;
48148;Laerm;29352;48.708;9.290;2023-04-06T11:24:11;47.50;33.90;52.09;;
48148;Laerm;29352;48.708;9.290;2023-04-06T11:26:47;47.63;15.00;51.61;;
48148;Laerm;29352;48.708;9.290;2023-04-06T11:29:17;47.06;36.91;51.96;;
48148;Laerm;29352;48.708;9.290;2023-04-06T11:31:50;46.85;33.90;50.71;;
48148;Laerm;29352;48.708;9.290;2023-04-06T11:34:22;45.78;15.00;51.38;;
48148;Laerm;29352;48.708;9.290;2023-04-06T11:36:55;45.62;15.00;50.71;;
48148;Laerm;29352;48.708;9.290;2023-04-06T11:39:25;45.06;15.00;49.81;;
48148;Laerm;29352;48.708;9.290;2023-04-06T11:41:53;41.62;15.00;47.52;;
48148;Laerm;29352;48.708;9.290;2023-04-06T11:44:42;41.26;15.00;47.70;;
48148;Laerm;29352;48.708;9.290;2023-04-06T11:47:12;41.37;15.00;47.70;;
48148;Laerm;29352;48.708;9.290;2023-04-06T11:49:41;42.42;15.00;49.21;;
48148;Laerm;29352;48.708;9.290;2023-04-06T11:52:25;44.14;15.00;55.77;;
48148;Laerm;29352;48.708;9.290;2023-04-06T11:54:53;43.00;15.00;51.30;;
48148;Laerm;29352;48.708;9.290;2023-04-06T11:57:22;43.61;15.00;53.54;;
48148;Laerm;29352;48.708;9.290;2023-04-06T11:59:51;43.01;15.00;49.46;;
48148;Laerm;29352;48.708;9.290;2023-04-06T12:02:17;42.62;15.00;48.21;;
48148;Laerm;29352;48.708;9.290;2023-04-06T12:04:44;42.75;15.00;48.37;;
48148;Laerm;29352;48.708;9.290;2023-04-06T12:07:10;40.99;15.00;48.95;;
48148;Laerm;29352;48.708;9.290;2023-04-06T12:09:35;40.86;15.00;47.35;;
48148;Laerm;29352;48.708;9.290;2023-04-06T12:12:02;40.25;15.00;47.70;;
48148;Laerm;29352;48.708;9.290;2023-04-06T12:14:29;40.21;15.00;51.96;;
48148;Laerm;29352;48.708;9.290;2023-04-06T12:16:57;44.92;15.00;50.62;;
48148;Laerm;29352;48.708;9.290;2023-04-06T12:19:23;45.85;33.90;50.53;;
48148;Laerm;29352;48.708;9.290;2023-04-06T12:21:53;45.64;15.00;50.13;;
48148;Laerm;29352;48.708;9.290;2023-04-06T12:24:19;43.16;15.00;49.08;;
48148;Laerm;29352;48.708;9.290;2023-04-06T12:26:45;41.28;15.00;48.05;;
48148;Laerm;29352;48.708;9.290;2023-04-06T12:29:11;46.73;15.00;51.53;;
48148;Laerm;29352;48.708;9.290;2023-04-06T12:31:39;42.00;15.00;49.34;;
48148;Laerm;29352;48.708;9.290;2023-04-06T12:34:06;42.58;15.00;48.81;;
48148;Laerm;29352;48.708;9.290;2023-04-06T12:36:33;42.88;15.00;48.37;;
48148;Laerm;29352;48.708;9.290;2023-04-06T12:38:59;45.50;15.00;50.53;;
48148;Laerm;29352;48.708;9.290;2023-04-06T12:41:27;45.10;15.00;51.75;;
48148;Laerm;29352;48.708;9.290;2023-04-06T12:43:53;41.59;15.00;47.53;;
48148;Laerm;29352;48.708;9.290;2023-04-06T12:46:18;41.80;15.00;48.21;;
48148;Laerm;29352;48.708;9.290;2023-04-06T12:48:44;42.32;15.00;49.08;;
48148;Laerm;29352;48.708;9.290;2023-04-06T12:51:09;45.21;15.00;77.58;;
48148;Laerm;29352;48.708;9.290;2023-04-06T12:53:35;41.28;15.00;51.53;;
48148;Laerm;29352;48.708;9.290;2023-04-06T12:56:11;40.57;15.00;51.89;;
48148;Laerm;29352;48.708;9.290;2023-04-06T12:58:37;40.19;15.00;47.12;;
48148;Laerm;29352;48.708;9.290;2023-04-06T13:01:07;41.17;15.00;47.52;;
48148;Laerm;29352;48.708;9.290;2023-04-06T13:03:33;42.35;15.00;51.75;;
48148;Laerm;29352;48.708;9.290;2023-04-06T13:06:00;43.24;15.00;48.67;;
48148;Laerm;29352;48.708;9.290;2023-04-06T13:08:26;42.73;15.00;48.52;;
48148;Laerm;29352;48.708;9.290;2023-04-06T13:10:55;40.74;15.00;47.32;;
48148;Laerm;29352;48.708;9.290;2023-04-06T13:13:26;39.11;15.00;47.88;;
48148;Laerm;29352;48.708;9.290;2023-04-06T13:15:54;38.81;15.00;57.74;;
48148;Laerm;29352;48.708;9.290;2023-04-06T13:18:21;61.10;15.00;90.97;;
48148;Laerm;29352;48.708;9.290;2023-04-06T13:20:48;38.73;15.00;47.32;;
48148;Laerm;29352;48.708;9.290;2023-04-06T13:23:14;38.72;15.00;46.91;;
48148;Laerm;29352;48.708;9.290;2023-04-06T13:25:40;78.43;15.00;98.37;;
48148;Laerm;29352;48.708;9.290;2023-04-06T13:28:07;90.67;15.00;101.18;;
48148;Laerm;29352;48.708;9.290;2023-04-06T13:30:32;86.01;15.00;100.66;;
48148;Laerm;29352;48.708;9.290;2023-04-06T13:32:57;15.00;15.00;15.00;;
48148;Laerm;29352;48.708;9.290;2023-04-06T13:35:23;15.00;15.00;15.00;;
48148;Laerm;29352;48.708;9.290;2023-04-06T13:37:49;15.00;15.00;15.00;;
48148;Laerm;29352;48.708;9.290;2023-04-06T13:40:16;15.00;15.00;15.00;;
48148;Laerm;29352;48.708;9.290;2023-04-06T13:42:42;15.00;15.00;15.00;;
48148;Laerm;29352;48.708;9.290;2023-04-06T13:45:10;15.00;15.00;15.00;;
48148;Laerm;29352;48.708;9.290;2023-04-06T13:47:36;15.00;15.00;15.00;;
48148;Laerm;29352;48.708;9.290;2023-04-06T13:50:02;15.00;15.00;15.00;;